sensor_id;sensor_type;location;lat;lon;timestamp;P1;durP1;ratioP1;P2;durP2;ratioP2
26965;SDS011;14522;52.068;4.414;2023-06-14T00:00:32;8.88;;;2.83;;
26965;SDS011;14522;52.068;4.414;2023-06-14T00:03:00;8.95;;;2.72;;
26965;SDS011;14522;52.068;4.414;2023-06-14T00:05:27;6.57;;;2.55;;
26965;SDS011;14522;52.068;4.414;2023-06-14T00:07:57;4.45;;;2.60;;
26965;SDS011;14522;52.068;4.414;2023-06-14T00:10:26;5.28;;;2.60;;
26965;SDS011;14522;52.068;4.414;2023-06-14T00:12:57;8.23;;;2.88;;
26965;SDS011;14522;52.068;4.414;2023-06-14T00:15:23;6.05;;;2.75;;
26965;SDS011;14522;52.068;4.414;2023-06-14T00:17:50;3.97;;;2.35;;
26965;SDS011;14522;52.068;4.414;2023-06-14T00:20:17;9.20;;;2.15;;
26965;SDS011;14522;52.068;4.414;2023-06-14T00:22:44;8.02;;;2.75;;
26965;SDS011;14522;52.068;4.414;2023-06-14T00:25:11;6.47;;;2.40;;
26965;SDS011;14522;52.068;4.414;2023-06-14T00:27:54;5.47;;;2.42;;
26965;SDS011;14522;52.068;4.414;2023-06-14T00:30:21;5.15;;;2.25;;
26965;SDS011;14522;52.068;4.414;2023-06-14T00:32:47;6.18;;;2.28;;
26965;SDS011;14522;52.068;4.414;2023-06-14T00:35:14;6.35;;;2.30;;
26965;SDS011;14522;52.068;4.414;2023-06-14T00:37:41;5.35;;;2.42;;
26965;SDS011;14522;52.068;4.414;2023-06-14T00:40:07;8.52;;;2.20;;
26965;SDS011;14522;52.068;4.414;2023-06-14T00:42:34;3.63;;;1.98;;
26965;SDS011;14522;52.068;4.414;2023-06-14T00:45:00;5.88;;;2.45;;
26965;SDS011;14522;52.068;4.414;2023-06-14T00:47:27;7.43;;;3.03;;
26965;SDS011;14522;52.068;4.414;2023-06-14T00:49:54;6.93;;;2.30;;
26965;SDS011;14522;52.068;4.414;2023-06-14T00:52:21;6.38;;;2.22;;
26965;SDS011;14522;52.068;4.414;2023-06-14T00:54:48;5.07;;;2.70;;
26965;SDS011;14522;52.068;4.414;2023-06-14T00:57:14;2.35;;;1.60;;
26965;SDS011;14522;52.068;4.414;2023-06-14T00:59:48;10.23;;;2.60;;
26965;SDS011;14522;52.068;4.414;2023-06-14T01:02:14;6.75;;;2.72;;
26965;SDS011;14522;52.068;4.414;2023-06-14T01:04:43;3.28;;;1.67;;
26965;SDS011;14522;52.068;4.414;2023-06-14T01:07:23;5.07;;;1.92;;
26965;SDS011;14522;52.068;4.414;2023-06-14T01:09:58;3.90;;;2.03;;
26965;SDS011;14522;52.068;4.414;2023-06-14T01:12:31;7.47;;;2.27;;
26965;SDS011;14522;52.068;4.414;2023-06-14T01:15:01;4.70;;;2.47;;
26965;SDS011;14522;52.068;4.414;2023-06-14T01:17:29;7.90;;;2.53;;
26965;SDS011;14522;52.068;4.414;2023-06-14T01:20:01;4.78;;;2.58;;
26965;SDS011;14522;52.068;4.414;2023-06-14T01:22:29;6.00;;;2.85;;
26965;SDS011;14522;52.068;4.414;2023-06-14T01:24:55;3.78;;;2.35;;
26965;SDS011;14522;52.068;4.414;2023-06-14T01:27:23;5.40;;;2.08;;
26965;SDS011;14522;52.068;4.414;2023-06-14T01:29:53;7.70;;;1.85;;
26965;SDS011;14522;52.068;4.414;2023-06-14T01:32:24;4.30;;;2.05;;
26965;SDS011;14522;52.068;4.414;2023-06-14T01:34:52;9.60;;;2.80;;
26965;SDS011;14522;52.068;4.414;2023-06-14T01:37:19;5.70;;;2.90;;
26965;SDS011;14522;52.068;4.414;2023-06-14T01:39:47;6.07;;;1.92;;
26965;SDS011;14522;52.068;4.414;2023-06-14T01:42:14;3.78;;;1.42;;
26965;SDS011;14522;52.068;4.414;2023-06-14T01:44:42;4.47;;;1.90;;
26965;SDS011;14522;52.068;4.414;2023-06-14T01:47:09;2.30;;;1.52;;
26965;SDS011;14522;52.068;4.414;2023-06-14T01:49:36;6.57;;;2.65;;
26965;SDS011;14522;52.068;4.414;2023-06-14T01:52:02;2.65;;;1.50;;
26965;SDS011;14522;52.068;4.414;2023-06-14T01:54:28;4.07;;;2.28;;
26965;SDS011;14522;52.068;4.414;2023-06-14T01:56:55;3.97;;;2.45;;
26965;SDS011;14522;52.068;4.414;2023-06-14T01:59:22;4.50;;;1.70;;
26965;SDS011;14522;52.068;4.414;2023-06-14T02:01:48;3.97;;;2.20;;
26965;SDS011;14522;52.068;4.414;2023-06-14T02:04:15;4.07;;;2.22;;
26965;SDS011;14522;52.068;4.414;2023-06-14T02:06:41;7.68;;;2.20;;
26965;SDS011;14522;52.068;4.414;2023-06-14T02:09:08;4.85;;;2.10;;
26965;SDS011;14522;52.068;4.414;2023-06-14T02:11:34;8.45;;;2.22;;
26965;SDS011;14522;52.068;4.414;2023-06-14T02:14:01;4.25;;;2.08;;
26965;SDS011;14522;52.068;4.414;2023-06-14T02:16:27;4.78;;;1.70;;
26965;SDS011;14522;52.068;4.414;2023-06-14T02:18:56;7.30;;;2.15;;
26965;SDS011;14522;52.068;4.414;2023-06-14T02:21:23;2.70;;;1.83;;
26965;SDS011;14522;52.068;4.414;2023-06-14T02:23:49;3.78;;;2.42;;
26965;SDS011;14522;52.068;4.414;2023-06-14T02:26:16;2.88;;;1.27;;
26965;SDS011;14522;52.068;4.414;2023-06-14T02:28:42;4.43;;;2.13;;
26965;SDS011;14522;52.068;4.414;2023-06-14T02:31:09;3.85;;;1.70;;
26965;SDS011;14522;52.068;4.414;2023-06-14T02:33:35;2.97;;;1.70;;
26965;SDS011;14522;52.068;4.414;2023-06-14T02:36:02;5.68;;;1.70;;
26965;SDS011;14522;52.068;4.414;2023-06-14T02:38:29;3.22;;;1.65;;
26965;SDS011;14522;52.068;4.414;2023-06-14T02:40:55;3.65;;;1.40;;
26965;SDS011;14522;52.068;4.414;2023-06-14T02:43:22;3.22;;;1.60;;
26965;SDS011;14522;52.068;4.414;2023-06-14T02:45:48;4.60;;;1.75;;
26965;SDS011;14522;52.068;4.414;2023-06-14T02:48:14;2.92;;;1.58;;
26965;SDS011;14522;52.068;4.414;2023-06-14T02:50:41;2.85;;;1.63;;
26965;SDS011;14522;52.068;4.414;2023-06-14T02:53:08;5.78;;;2.00;;
26965;SDS011;14522;52.068;4.414;2023-06-14T02:55:34;4.80;;;2.08;;
26965;SDS011;14522;52.068;4.414;2023-06-14T02:58:06;4.35;;;1.58;;
26965;SDS011;14522;52.068;4.414;2023-06-14T03:00:32;6.90;;;1.80;;
26965;SDS011;14522;52.068;4.414;2023-06-14T03:02:59;4.03;;;2.13;;
26965;SDS011;14522;52.068;4.414;2023-06-14T03:05:28;4.05;;;1.98;;
26965;SDS011;14522;52.068;4.414;2023-06-14T03:07:54;6.93;;;2.65;;
26965;SDS011;14522;52.068;4.414;2023-06-14T03:10:22;7.28;;;1.98;;
26965;SDS011;14522;52.068;4.414;2023-06-14T03:12:48;9.77;;;2.28;;
26965;SDS011;14522;52.068;4.414;2023-06-14T03:15:14;4.50;;;2.15;;
26965;SDS011;14522;52.068;4.414;2023-06-14T03:17:41;4.18;;;1.85;;
26965;SDS011;14522;52.068;4.414;2023-06-14T03:20:12;6.65;;;2.45;;
26965;SDS011;14522;52.068;4.414;2023-06-14T03:22:39;6.57;;;1.73;;
26965;SDS011;14522;52.068;4.414;2023-06-14T03:25:05;3.03;;;1.60;;
26965;SDS011;14522;52.068;4.414;2023-06-14T03:27:32;5.60;;;1.70;;
26965;SDS011;14522;52.068;4.414;2023-06-14T03:29:58;4.35;;;2.17;;
26965;SDS011;14522;52.068;4.414;2023-06-14T03:32:25;6.82;;;1.73;;
26965;SDS011;14522;52.068;4.414;2023-06-14T03:34:52;2.15;;;1.30;;
26965;SDS011;14522;52.068;4.414;2023-06-14T03:37:18;4.65;;;2.03;;
26965;SDS011;14522;52.068;4.414;2023-06-14T03:39:45;8.30;;;2.50;;
26965;SDS011;14522;52.068;4.414;2023-06-14T03:42:13;4.97;;;2.20;;
26965;SDS011;14522;52.068;4.414;2023-06-14T03:44:40;5.72;;;2.25;;
26965;SDS011;14522;52.068;4.414;2023-06-14T03:47:07;2.53;;;1.33;;
26965;SDS011;14522;52.068;4.414;2023-06-14T03:49:34;5.65;;;2.00;;
26965;SDS011;14522;52.068;4.414;2023-06-14T03:52:00;4.22;;;1.83;;
26965;SDS011;14522;52.068;4.414;2023-06-14T03:54:28;4.40;;;1.90;;
26965;SDS011;14522;52.068;4.414;2023-06-14T03:57:15;2.70;;;1.50;;
26965;SDS011;14522;52.068;4.414;2023-06-14T03:59:42;5.70;;;1.85;;
26965;SDS011;14522;52.068;4.414;2023-06-14T04:02:08;3.40;;;1.65;;
26965;SDS011;14522;52.068;4.414;2023-06-14T04:04:35;5.20;;;1.88;;
26965;SDS011;14522;52.068;4.414;2023-06-14T04:07:02;12.07;;;1.75;;
26965;SDS011;14522;52.068;4.414;2023-06-14T04:09:29;3.72;;;2.13;;
26965;SDS011;14522;52.068;4.414;2023-06-14T04:11:56;3.40;;;1.73;;
26965;SDS011;14522;52.068;4.414;2023-06-14T04:14:22;7.63;;;2.30;;
26965;SDS011;14522;52.068;4.414;2023-06-14T04:16:49;1.98;;;1.38;;
26965;SDS011;14522;52.068;4.414;2023-06-14T04:19:15;2.47;;;1.58;;
26965;SDS011;14522;52.068;4.414;2023-06-14T04:21:42;2.67;;;1.83;;
26965;SDS011;14522;52.068;4.414;2023-06-14T04:24:09;3.33;;;1.27;;
26965;SDS011;14522;52.068;4.414;2023-06-14T04:26:43;6.28;;;1.80;;
26965;SDS011;14522;52.068;4.414;2023-06-14T04:29:14;7.22;;;1.55;;
26965;SDS011;14522;52.068;4.414;2023-06-14T04:31:43;6.85;;;2.00;;
26965;SDS011;14522;52.068;4.414;2023-06-14T04:34:11;1.83;;;1.38;;
26965;SDS011;14522;52.068;4.414;2023-06-14T04:36:42;7.15;;;2.10;;
26965;SDS011;14522;52.068;4.414;2023-06-14T04:39:15;2.10;;;1.42;;
26965;SDS011;14522;52.068;4.414;2023-06-14T04:41:44;6.63;;;1.50;;
26965;SDS011;14522;52.068;4.414;2023-06-14T04:44:10;8.85;;;2.38;;
26965;SDS011;14522;52.068;4.414;2023-06-14T04:46:37;8.82;;;2.10;;
26965;SDS011;14522;52.068;4.414;2023-06-14T04:49:13;4.82;;;2.20;;
26965;SDS011;14522;52.068;4.414;2023-06-14T04:51:41;6.28;;;1.65;;
26965;SDS011;14522;52.068;4.414;2023-06-14T04:54:08;6.10;;;1.80;;
26965;SDS011;14522;52.068;4.414;2023-06-14T04:56:41;6.75;;;1.80;;
26965;SDS011;14522;52.068;4.414;2023-06-14T04:59:08;2.90;;;2.00;;
26965;SDS011;14522;52.068;4.414;2023-06-14T05:01:35;6.68;;;2.10;;
26965;SDS011;14522;52.068;4.414;2023-06-14T05:04:03;3.33;;;1.52;;
26965;SDS011;14522;52.068;4.414;2023-06-14T05:06:30;6.05;;;1.45;;
26965;SDS011;14522;52.068;4.414;2023-06-14T05:08:57;6.68;;;1.63;;
26965;SDS011;14522;52.068;4.414;2023-06-14T05:11:24;4.15;;;1.85;;
26965;SDS011;14522;52.068;4.414;2023-06-14T05:13:52;6.68;;;1.67;;
26965;SDS011;14522;52.068;4.414;2023-06-14T05:16:19;3.53;;;1.85;;
26965;SDS011;14522;52.068;4.414;2023-06-14T05:18:46;3.40;;;1.48;;
26965;SDS011;14522;52.068;4.414;2023-06-14T05:21:13;3.42;;;1.95;;
26965;SDS011;14522;52.068;4.414;2023-06-14T05:23:44;8.13;;;1.77;;
26965;SDS011;14522;52.068;4.414;2023-06-14T05:26:11;4.32;;;1.80;;
26965;SDS011;14522;52.068;4.414;2023-06-14T05:28:37;2.47;;;1.23;;
26965;SDS011;14522;52.068;4.414;2023-06-14T05:31:04;6.20;;;1.73;;
26965;SDS011;14522;52.068;4.414;2023-06-14T05:33:30;5.18;;;2.20;;
26965;SDS011;14522;52.068;4.414;2023-06-14T05:35:57;5.68;;;2.15;;
26965;SDS011;14522;52.068;4.414;2023-06-14T05:38:23;9.27;;;2.45;;
26965;SDS011;14522;52.068;4.414;2023-06-14T05:40:50;6.18;;;2.55;;
26965;SDS011;14522;52.068;4.414;2023-06-14T05:43:16;2.83;;;1.95;;
26965;SDS011;14522;52.068;4.414;2023-06-14T05:45:43;5.05;;;2.10;;
26965;SDS011;14522;52.068;4.414;2023-06-14T05:48:09;13.50;;;2.25;;
26965;SDS011;14522;52.068;4.414;2023-06-14T05:50:36;7.45;;;2.22;;
26965;SDS011;14522;52.068;4.414;2023-06-14T05:53:02;3.03;;;1.98;;
26965;SDS011;14522;52.068;4.414;2023-06-14T05:55:30;9.10;;;2.35;;
26965;SDS011;14522;52.068;4.414;2023-06-14T05:57:56;6.57;;;2.60;;
26965;SDS011;14522;52.068;4.414;2023-06-14T06:00:23;2.88;;;1.83;;
26965;SDS011;14522;52.068;4.414;2023-06-14T06:02:50;5.88;;;1.83;;
26965;SDS011;14522;52.068;4.414;2023-06-14T06:05:18;3.35;;;1.33;;
26965;SDS011;14522;52.068;4.414;2023-06-14T06:07:44;9.52;;;1.83;;
26965;SDS011;14522;52.068;4.414;2023-06-14T06:10:11;4.20;;;1.98;;
26965;SDS011;14522;52.068;4.414;2023-06-14T06:12:38;7.90;;;2.13;;
26965;SDS011;14522;52.068;4.414;2023-06-14T06:15:04;8.63;;;1.85;;
26965;SDS011;14522;52.068;4.414;2023-06-14T06:17:31;13.07;;;2.35;;
26965;SDS011;14522;52.068;4.414;2023-06-14T06:20:16;9.02;;;1.98;;
26965;SDS011;14522;52.068;4.414;2023-06-14T06:22:43;3.72;;;1.63;;
26965;SDS011;14522;52.068;4.414;2023-06-14T06:25:10;9.20;;;1.90;;
26965;SDS011;14522;52.068;4.414;2023-06-14T06:27:36;2.88;;;2.10;;
26965;SDS011;14522;52.068;4.414;2023-06-14T06:30:04;7.38;;;1.83;;
26965;SDS011;14522;52.068;4.414;2023-06-14T06:32:30;11.68;;;2.10;;
26965;SDS011;14522;52.068;4.414;2023-06-14T06:34:57;2.30;;;1.50;;
26965;SDS011;14522;52.068;4.414;2023-06-14T06:37:26;4.07;;;1.83;;
26965;SDS011;14522;52.068;4.414;2023-06-14T06:39:52;4.53;;;2.00;;
26965;SDS011;14522;52.068;4.414;2023-06-14T06:42:18;6.28;;;2.10;;
26965;SDS011;14522;52.068;4.414;2023-06-14T06:44:45;7.13;;;1.65;;
26965;SDS011;14522;52.068;4.414;2023-06-14T06:47:11;2.75;;;1.85;;
26965;SDS011;14522;52.068;4.414;2023-06-14T06:49:37;6.93;;;2.30;;
26965;SDS011;14522;52.068;4.414;2023-06-14T06:52:05;5.53;;;2.03;;
26965;SDS011;14522;52.068;4.414;2023-06-14T06:54:32;8.02;;;2.50;;
26965;SDS011;14522;52.068;4.414;2023-06-14T06:56:59;7.60;;;2.72;;
26965;SDS011;14522;52.068;4.414;2023-06-14T06:59:27;7.60;;;2.10;;
26965;SDS011;14522;52.068;4.414;2023-06-14T07:01:53;4.68;;;2.13;;
26965;SDS011;14522;52.068;4.414;2023-06-14T07:04:20;8.70;;;2.50;;
26965;SDS011;14522;52.068;4.414;2023-06-14T07:06:46;13.30;;;3.97;;
26965;SDS011;14522;52.068;4.414;2023-06-14T07:09:13;4.15;;;2.05;;
26965;SDS011;14522;52.068;4.414;2023-06-14T07:11:40;7.10;;;2.40;;
26965;SDS011;14522;52.068;4.414;2023-06-14T07:14:07;8.43;;;2.20;;
26965;SDS011;14522;52.068;4.414;2023-06-14T07:16:34;11.38;;;2.60;;
26965;SDS011;14522;52.068;4.414;2023-06-14T07:19:01;2.38;;;1.58;;
26965;SDS011;14522;52.068;4.414;2023-06-14T07:21:28;13.80;;;2.53;;
26965;SDS011;14522;52.068;4.414;2023-06-14T07:23:55;4.45;;;2.00;;
26965;SDS011;14522;52.068;4.414;2023-06-14T07:26:21;5.55;;;2.05;;
26965;SDS011;14522;52.068;4.414;2023-06-14T07:28:48;3.45;;;1.90;;
26965;SDS011;14522;52.068;4.414;2023-06-14T07:31:15;4.25;;;2.28;;
26965;SDS011;14522;52.068;4.414;2023-06-14T07:33:41;12.57;;;2.75;;
26965;SDS011;14522;52.068;4.414;2023-06-14T07:36:08;5.00;;;2.47;;
26965;SDS011;14522;52.068;4.414;2023-06-14T07:38:35;4.55;;;1.92;;
26965;SDS011;14522;52.068;4.414;2023-06-14T07:41:02;5.63;;;2.40;;
26965;SDS011;14522;52.068;4.414;2023-06-14T07:43:29;11.73;;;2.28;;
26965;SDS011;14522;52.068;4.414;2023-06-14T07:45:55;3.72;;;2.60;;
26965;SDS011;14522;52.068;4.414;2023-06-14T07:48:33;5.47;;;2.20;;
26965;SDS011;14522;52.068;4.414;2023-06-14T07:51:00;6.95;;;2.60;;
26965;SDS011;14522;52.068;4.414;2023-06-14T07:53:27;7.75;;;2.53;;
26965;SDS011;14522;52.068;4.414;2023-06-14T07:55:54;7.13;;;2.63;;
26965;SDS011;14522;52.068;4.414;2023-06-14T07:58:20;14.00;;;2.58;;
26965;SDS011;14522;52.068;4.414;2023-06-14T08:00:47;5.72;;;2.78;;
26965;SDS011;14522;52.068;4.414;2023-06-14T08:03:13;9.02;;;2.63;;
26965;SDS011;14522;52.068;4.414;2023-06-14T08:05:40;6.60;;;2.70;;
26965;SDS011;14522;52.068;4.414;2023-06-14T08:08:07;6.13;;;2.80;;
26965;SDS011;14522;52.068;4.414;2023-06-14T08:10:33;5.80;;;2.42;;
26965;SDS011;14522;52.068;4.414;2023-06-14T08:13:00;11.25;;;2.72;;
26965;SDS011;14522;52.068;4.414;2023-06-14T08:15:26;10.80;;;2.67;;
26965;SDS011;14522;52.068;4.414;2023-06-14T08:17:53;6.45;;;2.00;;
26965;SDS011;14522;52.068;4.414;2023-06-14T08:20:19;3.30;;;2.33;;
26965;SDS011;14522;52.068;4.414;2023-06-14T08:22:46;11.35;;;2.72;;
26965;SDS011;14522;52.068;4.414;2023-06-14T08:25:14;5.70;;;2.45;;
26965;SDS011;14522;52.068;4.414;2023-06-14T08:27:41;11.98;;;2.58;;
26965;SDS011;14522;52.068;4.414;2023-06-14T08:30:08;7.18;;;2.70;;
26965;SDS011;14522;52.068;4.414;2023-06-14T08:32:34;4.68;;;2.33;;
26965;SDS011;14522;52.068;4.414;2023-06-14T08:35:01;4.15;;;2.35;;
26965;SDS011;14522;52.068;4.414;2023-06-14T08:37:31;8.80;;;2.65;;
26965;SDS011;14522;52.068;4.414;2023-06-14T08:40:00;5.65;;;2.33;;
26965;SDS011;14522;52.068;4.414;2023-06-14T08:42:27;8.18;;;2.28;;
26965;SDS011;14522;52.068;4.414;2023-06-14T08:44:57;7.05;;;2.53;;
26965;SDS011;14522;52.068;4.414;2023-06-14T08:47:24;4.32;;;2.42;;
26965;SDS011;14522;52.068;4.414;2023-06-14T08:49:52;10.48;;;2.55;;
26965;SDS011;14522;52.068;4.414;2023-06-14T08:52:19;6.82;;;3.03;;
26965;SDS011;14522;52.068;4.414;2023-06-14T08:54:47;7.60;;;2.30;;
26965;SDS011;14522;52.068;4.414;2023-06-14T08:57:15;6.65;;;2.25;;
26965;SDS011;14522;52.068;4.414;2023-06-14T08:59:45;9.02;;;2.83;;
26965;SDS011;14522;52.068;4.414;2023-06-14T09:02:13;7.10;;;2.40;;
26965;SDS011;14522;52.068;4.414;2023-06-14T09:04:40;3.40;;;1.73;;
26965;SDS011;14522;52.068;4.414;2023-06-14T09:07:07;9.30;;;2.38;;
26965;SDS011;14522;52.068;4.414;2023-06-14T09:09:38;10.02;;;3.33;;
26965;SDS011;14522;52.068;4.414;2023-06-14T09:12:06;5.85;;;2.20;;
26965;SDS011;14522;52.068;4.414;2023-06-14T09:14:33;7.55;;;2.75;;
26965;SDS011;14522;52.068;4.414;2023-06-14T09:17:01;5.15;;;2.03;;
26965;SDS011;14522;52.068;4.414;2023-06-14T09:19:27;5.70;;;2.03;;
26965;SDS011;14522;52.068;4.414;2023-06-14T09:21:54;8.13;;;2.20;;
26965;SDS011;14522;52.068;4.414;2023-06-14T09:24:23;4.45;;;2.17;;
26965;SDS011;14522;52.068;4.414;2023-06-14T09:26:51;4.80;;;2.13;;
26965;SDS011;14522;52.068;4.414;2023-06-14T09:29:18;6.32;;;2.22;;
26965;SDS011;14522;52.068;4.414;2023-06-14T09:31:47;28.23;;;5.63;;
26965;SDS011;14522;52.068;4.414;2023-06-14T09:34:14;8.90;;;2.90;;
26965;SDS011;14522;52.068;4.414;2023-06-14T09:36:42;12.05;;;2.45;;
26965;SDS011;14522;52.068;4.414;2023-06-14T09:39:09;5.60;;;2.03;;
26965;SDS011;14522;52.068;4.414;2023-06-14T09:41:39;10.82;;;2.65;;
26965;SDS011;14522;52.068;4.414;2023-06-14T09:44:06;6.32;;;2.10;;
26965;SDS011;14522;52.068;4.414;2023-06-14T09:46:39;8.90;;;2.50;;
26965;SDS011;14522;52.068;4.414;2023-06-14T09:49:06;10.32;;;2.28;;
26965;SDS011;14522;52.068;4.414;2023-06-14T09:51:33;5.53;;;2.42;;
26965;SDS011;14522;52.068;4.414;2023-06-14T09:54:00;9.20;;;2.25;;
26965;SDS011;14522;52.068;4.414;2023-06-14T09:56:28;6.88;;;2.13;;
26965;SDS011;14522;52.068;4.414;2023-06-14T09:58:56;6.45;;;1.88;;
26965;SDS011;14522;52.068;4.414;2023-06-14T10:01:33;2.08;;;1.30;;
26965;SDS011;14522;52.068;4.414;2023-06-14T10:04:06;9.02;;;2.58;;
26965;SDS011;14522;52.068;4.414;2023-06-14T10:06:37;5.15;;;2.10;;
26965;SDS011;14522;52.068;4.414;2023-06-14T10:09:07;5.43;;;2.40;;
26965;SDS011;14522;52.068;4.414;2023-06-14T10:11:34;5.25;;;1.65;;
26965;SDS011;14522;52.068;4.414;2023-06-14T10:14:01;4.82;;;1.77;;
26965;SDS011;14522;52.068;4.414;2023-06-14T10:16:34;6.80;;;2.00;;
26965;SDS011;14522;52.068;4.414;2023-06-14T10:21:55;3.53;;;1.75;;
26965;SDS011;14522;52.068;4.414;2023-06-14T10:24:25;28.48;;;2.15;;
26965;SDS011;14522;52.068;4.414;2023-06-14T10:26:54;2.05;;;1.25;;
26965;SDS011;14522;52.068;4.414;2023-06-14T10:29:25;4.70;;;1.85;;
26965;SDS011;14522;52.068;4.414;2023-06-14T10:31:55;14.13;;;1.75;;
26965;SDS011;14522;52.068;4.414;2023-06-14T10:34:23;2.85;;;1.58;;
26965;SDS011;14522;52.068;4.414;2023-06-14T10:37:00;3.80;;;1.50;;
26965;SDS011;14522;52.068;4.414;2023-06-14T10:39:28;8.23;;;1.85;;
26965;SDS011;14522;52.068;4.414;2023-06-14T10:41:55;2.53;;;1.40;;
26965;SDS011;14522;52.068;4.414;2023-06-14T10:46:49;1.85;;;1.40;;
26965;SDS011;14522;52.068;4.414;2023-06-14T10:49:18;3.13;;;1.20;;
26965;SDS011;14522;52.068;4.414;2023-06-14T10:51:46;3.88;;;1.42;;
26965;SDS011;14522;52.068;4.414;2023-06-14T10:54:15;5.50;;;1.70;;
26965;SDS011;14522;52.068;4.414;2023-06-14T10:56:49;3.00;;;1.50;;
26965;SDS011;14522;52.068;4.414;2023-06-14T10:59:17;2.45;;;1.55;;
26965;SDS011;14522;52.068;4.414;2023-06-14T11:05:03;8.07;;;1.67;;
26965;SDS011;14522;52.068;4.414;2023-06-14T11:10:00;3.92;;;1.55;;
26965;SDS011;14522;52.068;4.414;2023-06-14T11:12:28;2.17;;;1.40;;
26965;SDS011;14522;52.068;4.414;2023-06-14T11:14:58;2.10;;;1.60;;
26965;SDS011;14522;52.068;4.414;2023-06-14T11:17:24;3.58;;;1.27;;
26965;SDS011;14522;52.068;4.414;2023-06-14T11:20:06;6.68;;;1.70;;
26965;SDS011;14522;52.068;4.414;2023-06-14T11:22:38;4.47;;;1.48;;
26965;SDS011;14522;52.068;4.414;2023-06-14T11:25:07;5.03;;;1.13;;
26965;SDS011;14522;52.068;4.414;2023-06-14T11:27:34;3.67;;;1.40;;
26965;SDS011;14522;52.068;4.414;2023-06-14T11:30:01;1.75;;;1.10;;
26965;SDS011;14522;52.068;4.414;2023-06-14T11:32:31;2.85;;;0.93;;
26965;SDS011;14522;52.068;4.414;2023-06-14T11:34:57;5.18;;;1.15;;
26965;SDS011;14522;52.068;4.414;2023-06-14T11:37:25;1.85;;;1.30;;
26965;SDS011;14522;52.068;4.414;2023-06-14T11:39:52;6.38;;;1.05;;
26965;SDS011;14522;52.068;4.414;2023-06-14T11:42:21;1.98;;;1.10;;
26965;SDS011;14522;52.068;4.414;2023-06-14T11:44:49;7.53;;;1.60;;
26965;SDS011;14522;52.068;4.414;2023-06-14T11:47:15;2.58;;;1.25;;
26965;SDS011;14522;52.068;4.414;2023-06-14T11:49:42;2.47;;;1.20;;
26965;SDS011;14522;52.068;4.414;2023-06-14T11:52:09;2.78;;;1.10;;
26965;SDS011;14522;52.068;4.414;2023-06-14T11:54:37;3.67;;;1.17;;
26965;SDS011;14522;52.068;4.414;2023-06-14T11:57:04;1.13;;;1.02;;
26965;SDS011;14522;52.068;4.414;2023-06-14T11:59:39;2.72;;;1.10;;
26965;SDS011;14522;52.068;4.414;2023-06-14T12:02:06;1.52;;;1.00;;
26965;SDS011;14522;52.068;4.414;2023-06-14T12:04:34;3.75;;;1.38;;
26965;SDS011;14522;52.068;4.414;2023-06-14T12:07:13;2.08;;;1.05;;
26965;SDS011;14522;52.068;4.414;2023-06-14T12:12:25;2.53;;;1.33;;
26965;SDS011;14522;52.068;4.414;2023-06-14T12:14:52;2.38;;;1.15;;
26965;SDS011;14522;52.068;4.414;2023-06-14T12:17:19;3.17;;;1.20;;
26965;SDS011;14522;52.068;4.414;2023-06-14T12:19:46;2.80;;;1.13;;
26965;SDS011;14522;52.068;4.414;2023-06-14T12:22:13;2.85;;;1.17;;
26965;SDS011;14522;52.068;4.414;2023-06-14T12:24:43;2.67;;;1.20;;
26965;SDS011;14522;52.068;4.414;2023-06-14T12:27:09;5.55;;;1.20;;
26965;SDS011;14522;52.068;4.414;2023-06-14T12:29:37;1.25;;;1.10;;
26965;SDS011;14522;52.068;4.414;2023-06-14T12:32:04;2.95;;;1.35;;
26965;SDS011;14522;52.068;4.414;2023-06-14T12:34:31;1.77;;;1.10;;
26965;SDS011;14522;52.068;4.414;2023-06-14T12:36:58;5.32;;;1.20;;
26965;SDS011;14522;52.068;4.414;2023-06-14T12:39:25;5.20;;;1.20;;
26965;SDS011;14522;52.068;4.414;2023-06-14T12:41:52;1.42;;;1.00;;
26965;SDS011;14522;52.068;4.414;2023-06-14T12:44:18;2.22;;;0.95;;
26965;SDS011;14522;52.068;4.414;2023-06-14T12:46:45;1.50;;;1.17;;
26965;SDS011;14522;52.068;4.414;2023-06-14T12:49:11;2.22;;;1.00;;
26965;SDS011;14522;52.068;4.414;2023-06-14T12:51:39;2.58;;;1.27;;
26965;SDS011;14522;52.068;4.414;2023-06-14T12:54:06;3.08;;;1.00;;
26965;SDS011;14522;52.068;4.414;2023-06-14T12:56:32;3.30;;;1.27;;
26965;SDS011;14522;52.068;4.414;2023-06-14T12:58:58;5.18;;;1.20;;
26965;SDS011;14522;52.068;4.414;2023-06-14T13:01:25;4.07;;;1.17;;
26965;SDS011;14522;52.068;4.414;2023-06-14T13:03:52;2.75;;;1.30;;
26965;SDS011;14522;52.068;4.414;2023-06-14T13:06:20;3.63;;;1.10;;
26965;SDS011;14522;52.068;4.414;2023-06-14T13:08:47;1.42;;;1.10;;
26965;SDS011;14522;52.068;4.414;2023-06-14T13:11:14;1.60;;;1.13;;
26965;SDS011;14522;52.068;4.414;2023-06-14T13:13:40;1.92;;;1.35;;
26965;SDS011;14522;52.068;4.414;2023-06-14T13:16:07;1.30;;;1.00;;
26965;SDS011;14522;52.068;4.414;2023-06-14T13:18:33;2.75;;;1.42;;
26965;SDS011;14522;52.068;4.414;2023-06-14T13:21:00;5.32;;;1.05;;
26965;SDS011;14522;52.068;4.414;2023-06-14T13:23:27;4.35;;;1.23;;
26965;SDS011;14522;52.068;4.414;2023-06-14T13:25:53;4.63;;;1.95;;
26965;SDS011;14522;52.068;4.414;2023-06-14T13:28:20;2.63;;;1.00;;
26965;SDS011;14522;52.068;4.414;2023-06-14T13:30:47;2.10;;;1.10;;
26965;SDS011;14522;52.068;4.414;2023-06-14T13:33:13;2.58;;;1.00;;
26965;SDS011;14522;52.068;4.414;2023-06-14T13:35:40;1.73;;;1.20;;
26965;SDS011;14522;52.068;4.414;2023-06-14T13:38:08;3.60;;;1.30;;
26965;SDS011;14522;52.068;4.414;2023-06-14T13:40:34;1.40;;;1.02;;
26965;SDS011;14522;52.068;4.414;2023-06-14T13:43:01;3.03;;;1.13;;
26965;SDS011;14522;52.068;4.414;2023-06-14T13:45:27;2.78;;;1.10;;
26965;SDS011;14522;52.068;4.414;2023-06-14T13:47:54;1.25;;;0.90;;
26965;SDS011;14522;52.068;4.414;2023-06-14T13:50:21;3.10;;;1.10;;
26965;SDS011;14522;52.068;4.414;2023-06-14T13:52:47;1.67;;;1.10;;
26965;SDS011;14522;52.068;4.414;2023-06-14T13:55:14;6.13;;;1.30;;
26965;SDS011;14522;52.068;4.414;2023-06-14T13:57:40;2.58;;;0.98;;
26965;SDS011;14522;52.068;4.414;2023-06-14T14:00:07;5.38;;;1.52;;
26965;SDS011;14522;52.068;4.414;2023-06-14T14:02:35;1.88;;;1.25;;
26965;SDS011;14522;52.068;4.414;2023-06-14T14:05:01;2.95;;;1.10;;
26965;SDS011;14522;52.068;4.414;2023-06-14T14:07:28;1.60;;;1.08;;
26965;SDS011;14522;52.068;4.414;2023-06-14T14:09:54;3.50;;;1.25;;
26965;SDS011;14522;52.068;4.414;2023-06-14T14:12:23;1.85;;;1.00;;
26965;SDS011;14522;52.068;4.414;2023-06-14T14:14:51;6.63;;;1.20;;
26965;SDS011;14522;52.068;4.414;2023-06-14T14:17:17;2.47;;;0.90;;
26965;SDS011;14522;52.068;4.414;2023-06-14T14:19:44;0.93;;;0.80;;
26965;SDS011;14522;52.068;4.414;2023-06-14T14:22:11;1.73;;;0.90;;
26965;SDS011;14522;52.068;4.414;2023-06-14T14:24:37;3.47;;;1.52;;
26965;SDS011;14522;52.068;4.414;2023-06-14T14:27:04;5.40;;;1.08;;
26965;SDS011;14522;52.068;4.414;2023-06-14T14:29:30;5.25;;;1.52;;
26965;SDS011;14522;52.068;4.414;2023-06-14T14:31:57;1.92;;;1.13;;
26965;SDS011;14522;52.068;4.414;2023-06-14T14:34:24;6.28;;;1.00;;
26965;SDS011;14522;52.068;4.414;2023-06-14T14:36:50;2.58;;;1.02;;
26965;SDS011;14522;52.068;4.414;2023-06-14T14:39:17;2.65;;;1.08;;
26965;SDS011;14522;52.068;4.414;2023-06-14T14:41:43;1.98;;;1.40;;
26965;SDS011;14522;52.068;4.414;2023-06-14T14:44:10;2.13;;;0.95;;
26965;SDS011;14522;52.068;4.414;2023-06-14T14:46:36;1.80;;;1.00;;
26965;SDS011;14522;52.068;4.414;2023-06-14T14:49:04;3.78;;;1.05;;
26965;SDS011;14522;52.068;4.414;2023-06-14T14:51:30;2.55;;;1.10;;
26965;SDS011;14522;52.068;4.414;2023-06-14T14:53:57;2.22;;;1.10;;
26965;SDS011;14522;52.068;4.414;2023-06-14T14:56:23;5.32;;;1.30;;
26965;SDS011;14522;52.068;4.414;2023-06-14T14:58:50;5.63;;;1.33;;
26965;SDS011;14522;52.068;4.414;2023-06-14T15:01:17;8.82;;;1.13;;
26965;SDS011;14522;52.068;4.414;2023-06-14T15:03:44;2.60;;;1.00;;